Time;durP1;ratioP1;P1;durP2;ratioP2;P2;SDS_P1;SDS_P2;PMS_P1;PMS_P2;Temp;Humidity;BMP_temperature;BMP_pressure;BME280_temperature;BME280_humidity;BME280_pressure;Samples;Min_cycle;Max_cycle;Signal;HPM_P1;HPM_P2
2023/04/05 08:38:56;;;;;;;;;9.25;8.00;;;;;;;;5151319;27;13505;-73
2023/04/05 08:41:22;;;;;;;;;7.20;6.20;;;;;;;;5144675;27;14048;-76
2023/04/05 08:44:01;;;;;;;;;10.40;8.00;;;;;;;;5144634;27;13474;-76
2023/04/05 08:46:29;;;;;;;;;6.00;5.00;;;;;;;;5144492;27;13423;-79
2023/04/05 08:48:55;;;;;;;;;5.75;5.75;;;;;;;;5142254;27;13397;-77
2023/04/05 08:51:21;;;;;;;;;8.00;8.00;;;;;;;;5144298;27;13385;-76
2023/04/05 08:53:47;;;;;;;;;8.00;7.00;;;;;;;;5144519;27;13425;-73
2023/04/05 08:56:14;;;;;;;;;6.00;6.00;;;;;;;;5144211;27;13540;-74
2023/04/05 08:58:43;;;;;;;;;6.25;6.25;;;;;;;;5142587;27;13371;-75
2023/04/05 09:01:09;;;;;;;;;6.80;6.40;;;;;;;;5144155;27;13309;-72
2023/04/05 09:03:36;;;;;;;;;7.25;7.25;;;;;;;;5144007;27;13327;-75
2023/04/05 09:06:06;;;;;;;;;4.50;4.50;;;;;;;;5144182;27;13333;-74
2023/04/05 09:08:31;;;;;;;;;7.80;7.80;;;;;;;;5141889;27;13354;-77
2023/04/05 09:10:56;;;;;;;;;7.50;7.50;;;;;;;;5143688;27;13300;-77
2023/04/05 09:13:22;;;;;;;;;5.75;5.75;;;;;;;;5143629;27;13328;-74
2023/04/05 09:15:47;;;;;;;;;9.00;7.00;;;;;;;;5143757;27;13426;-81
2023/04/05 09:18:12;;;;;;;;;8.50;7.00;;;;;;;;5141979;27;14045;-74
2023/04/05 09:20:38;;;;;;;;;7.00;7.00;;;;;;;;5143555;27;13332;-72
2023/04/05 09:23:03;;;;;;;;;7.33;6.00;;;;;;;;5143773;27;13297;-72
2023/04/05 09:25:31;;;;;;;;;7.33;6.33;;;;;;;;5143511;27;13352;-74
2023/04/05 09:27:57;;;;;;;;;6.75;6.75;;;;;;;;5142446;27;13453;-72
2023/04/05 09:30:23;;;;;;;;;7.80;7.80;;;;;;;;5142239;27;13379;-77
2023/04/05 09:32:54;;;;;;;;;5.60;5.60;;;;;;;;5143644;27;13318;-73
2023/04/05 09:35:27;;;;;;;;;6.25;5.50;;;;;;;;5143839;27;14134;-75
2023/04/05 09:37:59;;;;;;;;;6.00;6.00;;;;;;;;5142977;27;13380;-75
2023/04/05 09:40:45;;;;;;;;;7.25;7.25;;;;;;;;5142499;27;13402;-75
2023/04/05 09:43:11;;;;;;;;;6.00;6.00;;;;;;;;5143095;27;13386;-75
2023/04/05 09:45:41;;;;;;;;;8.00;6.00;;;;;;;;5143761;27;13410;-78
2023/04/05 09:48:07;;;;;;;;;6.25;6.25;;;;;;;;5025501;28;13415;-86
2023/04/05 09:50:32;;;;;;;;;7.50;7.50;;;;;;;;5060120;28;13532;-81
2023/04/05 09:53:06;;;;;;;;;7.33;7.00;;;;;;;;5063801;28;13387;-78
2023/04/05 09:55:32;;;;;;;;;7.00;7.00;;;;;;;;5065868;28;13395;-82
2023/04/05 09:57:58;;;;;;;;;6.25;6.00;;;;;;;;5064280;28;14180;-77
2023/04/05 10:00:23;;;;;;;;;8.00;8.00;;;;;;;;5065229;28;13367;-72
2023/04/05 10:02:51;;;;;;;;;6.75;5.75;;;;;;;;5065598;28;13529;-79
2023/04/05 10:05:17;;;;;;;;;5.00;4.20;;;;;;;;5065699;28;14147;-74
2023/04/05 10:07:42;;;;;;;;;8.75;7.00;;;;;;;;5067269;28;13455;-78
2023/04/05 10:10:09;;;;;;;;;10.25;9.50;;;;;;;;5065605;28;13358;-76
2023/04/05 10:12:36;;;;;;;;;10.60;9.80;;;;;;;;5067785;28;13469;-76
2023/04/05 10:15:02;;;;;;;;;10.50;9.00;;;;;;;;5068218;28;13513;-82
2023/04/05 10:17:30;;;;;;;;;6.67;6.67;;;;;;;;5068224;28;13461;-82
2023/04/05 10:20:14;;;;;;;;;6.80;6.20;;;;;;;;5065927;28;13428;-81
2023/04/05 10:22:43;;;;;;;;;8.50;7.00;;;;;;;;5066884;28;13663;-77
2023/04/05 10:25:37;;;;;;;;;6.75;6.75;;;;;;;;5067554;28;14081;-75
2023/04/05 10:28:04;;;;;;;;;9.75;8.75;;;;;;;;4967996;28;13472;-73
2023/04/05 10:30:33;;;;;;;;;8.00;7.00;;;;;;;;5066693;28;13424;-80
2023/04/05 10:33:17;;;;;;;;;5.25;5.25;;;;;;;;5067887;28;13506;-76
2023/04/05 10:36:00;;;;;;;;;7.60;6.00;;;;;;;;5067635;28;13373;-77
2023/04/05 10:38:26;;;;;;;;;8.00;8.00;;;;;;;;5065571;28;13580;-84
2023/04/05 10:41:20;;;;;;;;;8.00;8.00;;;;;;;;5066596;28;13449;-75
2023/04/05 10:43:48;;;;;;;;;8.00;6.40;;;;;;;;5045123;28;13405;-74
2023/04/05 10:46:18;;;;;;;;;8.00;6.00;;;;;;;;5022827;28;14265;-74
2023/04/05 10:48:49;;;;;;;;;10.00;8.00;;;;;;;;5006507;28;13506;-71
2023/04/05 10:51:15;;;;;;;;;8.20;7.60;;;;;;;;5024455;28;13433;-77
2023/04/05 10:53:40;;;;;;;;;7.75;7.75;;;;;;;;5024735;28;13379;-78
2023/04/05 10:56:06;;;;;;;;;10.50;8.75;;;;;;;;5024609;28;14212;-71
2023/04/05 10:58:33;;;;;;;;;8.75;8.75;;;;;;;;5022913;28;13458;-74
2023/04/05 11:00:59;;;;;;;;;9.75;8.00;;;;;;;;5041339;28;14091;-76
2023/04/05 11:03:43;;;;;;;;;6.20;6.20;;;;;;;;5044650;28;13413;-71
2023/04/05 11:06:22;;;;;;;;;10.25;8.00;;;;;;;;5027389;28;13306;-74
2023/04/05 11:08:48;;;;;;;;;6.80;6.80;;;;;;;;5034840;28;13457;-75
2023/04/05 11:11:15;;;;;;;;;7.20;7.20;;;;;;;;5043570;28;13400;-78
2023/04/05 11:13:51;;;;;;;;;8.00;8.00;;;;;;;;5044332;28;13274;-78
2023/04/05 11:16:16;;;;;;;;;9.00;9.00;;;;;;;;5039048;28;14273;-77
2023/04/05 11:18:51;;;;;;;;;9.25;8.00;;;;;;;;5022607;28;13473;-77
2023/04/05 11:21:20;;;;;;;;;8.80;8.80;;;;;;;;5064318;28;13413;-77
2023/04/05 11:23:59;;;;;;;;;11.75;8.75;;;;;;;;5066885;28;13435;-78
2023/04/05 11:26:29;;;;;;;;;10.00;7.25;;;;;;;;5066279;28;13425;-78
2023/04/05 11:28:56;;;;;;;;;10.20;9.20;;;;;;;;5064471;28;14246;-81
2023/04/05 11:31:25;;;;;;;;;8.00;8.00;;;;;;;;5066547;28;13580;-80
2023/04/05 11:33:57;;;;;;;;;8.00;8.00;;;;;;;;5066610;28;13402;-81
2023/04/05 11:36:35;;;;;;;;;9.60;8.00;;;;;;;;5066281;28;13375;-81
2023/04/05 11:39:18;;;;;;;;;10.00;7.00;;;;;;;;5063743;28;13410;-80
2023/04/05 11:41:56;;;;;;;;;10.00;10.00;;;;;;;;5066295;28;14270;-76
2023/04/05 11:44:23;;;;;;;;;10.40;9.00;;;;;;;;5065166;28;13436;-82
2023/04/05 11:46:48;;;;;;;;;9.40;9.00;;;;;;;;5066366;28;13459;-83
2023/04/05 11:49:14;;;;;;;;;6.00;6.00;;;;;;;;5064081;28;14113;-82
2023/04/05 11:51:43;;;;;;;;;9.50;7.25;;;;;;;;5066311;28;13493;-81
2023/04/05 11:54:08;;;;;;;;;8.00;7.00;;;;;;;;5066040;28;13410;-81
2023/04/05 11:56:33;;;;;;;;;7.25;5.75;;;;;;;;5066128;28;14084;-83
2023/04/05 11:58:59;;;;;;;;;9.00;9.00;;;;;;;;5062840;28;13446;-86
2023/04/05 12:01:25;;;;;;;;;7.00;7.00;;;;;;;;5065963;28;13362;-82
2023/04/05 12:03:54;;;;;;;;;7.25;7.25;;;;;;;;5064950;28;13589;-82
2023/04/05 12:06:23;;;;;;;;;7.25;7.25;;;;;;;;5063793;28;13453;-84
2023/04/05 12:08:49;;;;;;;;;7.00;7.00;;;;;;;;5061605;28;13441;-78
2023/04/05 12:11:15;;;;;;;;;4.80;4.80;;;;;;;;5063201;28;13431;-80
2023/04/05 12:13:40;;;;;;;;;6.75;5.75;;;;;;;;5064038;28;13533;-80
2023/04/05 12:16:06;;;;;;;;;5.50;5.50;;;;;;;;5063609;28;13450;-82
2023/04/05 12:18:33;;;;;;;;;7.75;6.00;;;;;;;;5010763;28;13593;-76
2023/04/05 12:20:59;;;;;;;;;6.60;6.00;;;;;;;;4991187;28;13487;-77
2023/04/05 12:23:25;;;;;;;;;9.00;6.00;;;;;;;;5044153;28;13430;-77
2023/04/05 12:25:51;;;;;;;;;3.40;3.40;;;;;;;;5045211;28;13413;-78
2023/04/05 12:28:16;;;;;;;;;3.20;3.20;;;;;;;;5046887;28;13496;-76
2023/04/05 12:30:57;;;;;;;;;3.67;3.67;;;;;;;;5064909;28;13620;-78
2023/04/05 12:33:31;;;;;;;;;8.80;5.80;;;;;;;;5065379;28;13960;-79
2023/04/05 12:35:57;;;;;;;;;4.00;3.40;;;;;;;;5065097;28;13440;-78
2023/04/05 12:38:28;;;;;;;;;7.25;3.00;;;;;;;;5065091;28;13471;-78
2023/04/05 12:40:58;;;;;;;;;3.60;3.60;;;;;;;;5065242;28;13452;-78
2023/04/05 12:43:23;;;;;;;;;6.00;4.00;;;;;;;;5065379;28;13408;-79
2023/04/05 12:45:52;;;;;;;;;2.75;2.75;;;;;;;;5065080;28;13407;-75
2023/04/05 12:48:25;;;;;;;;;6.00;2.75;;;;;;;;5063731;28;13423;-78
2023/04/05 12:50:50;;;;;;;;;3.25;3.25;;;;;;;;5065209;28;13526;-78
2023/04/05 12:53:18;;;;;;;;;4.00;4.00;;;;;;;;5064229;28;13414;-77
2023/04/05 12:55:47;;;;;;;;;3.80;3.80;;;;;;;;5064689;28;13429;-76
2023/04/05 12:58:13;;;;;;;;;6.00;4.00;;;;;;;;5064905;28;13421;-76
2023/04/05 13:00:38;;;;;;;;;4.00;3.00;;;;;;;;5065033;28;13623;-75
2023/04/05 13:03:04;;;;;;;;;6.00;6.00;;;;;;;;5063980;28;13642;-75
2023/04/05 13:05:29;;;;;;;;;3.00;3.00;;;;;;;;5064205;28;14158;-76
2023/04/05 13:07:54;;;;;;;;;4.00;4.00;;;;;;;;5065011;28;13619;-77
2023/04/05 13:10:21;;;;;;;;;4.00;3.00;;;;;;;;5065177;28;13391;-75
2023/04/05 13:12:46;;;;;;;;;6.00;4.00;;;;;;;;5065247;28;13550;-75
2023/04/05 13:15:13;;;;;;;;;7.80;6.00;;;;;;;;5061677;28;13553;-71
2023/04/05 13:17:38;;;;;;;;;4.00;3.00;;;;;;;;5064252;28;13520;-67
2023/04/05 13:20:04;;;;;;;;;6.00;6.00;;;;;;;;5064629;28;14236;-73
2023/04/05 13:22:30;;;;;;;;;7.00;7.00;;;;;;;;5040875;28;13545;-70
2023/04/05 13:24:55;;;;;;;;;6.25;6.25;;;;;;;;5059459;28;13447;-72
2023/04/05 13:27:21;;;;;;;;;6.00;6.00;;;;;;;;5067423;28;13551;-71
2023/04/05 13:29:46;;;;;;;;;7.67;6.00;;;;;;;;5068699;28;14151;-73
2023/04/05 13:32:12;;;;;;;;;7.00;7.00;;;;;;;;5068558;28;14202;-71
2023/04/05 13:34:37;;;;;;;;;6.00;6.00;;;;;;;;5066482;28;13518;-72
2023/04/05 13:37:02;;;;;;;;;10.50;7.00;;;;;;;;5067948;28;13470;-69
2023/04/05 13:39:28;;;;;;;;;6.00;6.00;;;;;;;;5068474;28;13367;-70
2023/04/05 13:41:53;;;;;;;;;8.75;6.75;;;;;;;;5067013;28;13509;-69
2023/04/05 13:44:18;;;;;;;;;6.00;6.00;;;;;;;;5066234;28;13398;-70
2023/04/05 13:46:43;;;;;;;;;6.00;6.00;;;;;;;;5067844;28;14327;-71
2023/04/05 13:49:09;;;;;;;;;9.00;7.00;;;;;;;;5067794;28;13265;-71
2023/04/05 13:51:40;;;;;;;;;11.00;8.00;;;;;;;;5066312;28;13812;-71
2023/04/05 13:54:05;;;;;;;;;6.00;6.00;;;;;;;;5064732;28;13494;-79
2023/04/05 13:56:30;;;;;;;;;4.00;4.00;;;;;;;;5065636;28;13374;-73
2023/04/05 13:58:55;;;;;;;;;6.00;6.00;;;;;;;;5065685;28;13467;-76
2023/04/05 14:01:20;;;;;;;;;3.75;3.75;;;;;;;;5064208;28;13547;-77
2023/04/05 14:03:46;;;;;;;;;7.33;7.00;;;;;;;;5065405;28;14205;-79
2023/04/05 14:06:11;;;;;;;;;7.00;7.00;;;;;;;;5066555;28;13390;-77
2023/04/05 14:08:36;;;;;;;;;6.25;6.25;;;;;;;;5067784;28;14026;-81
2023/04/05 14:11:02;;;;;;;;;7.00;7.00;;;;;;;;5067628;28;14130;-80
2023/04/05 14:13:27;;;;;;;;;6.50;6.50;;;;;;;;5067664;28;13693;-80
2023/04/05 14:15:52;;;;;;;;;6.00;5.33;;;;;;;;5067619;28;13353;-78
2023/04/05 14:18:17;;;;;;;;;4.00;4.00;;;;;;;;5067505;28;13455;-78
2023/04/05 14:20:43;;;;;;;;;8.50;6.00;;;;;;;;5067310;28;13391;-76
2023/04/05 14:23:08;;;;;;;;;10.50;6.00;;;;;;;;5067470;28;13432;-76
2023/04/05 14:25:33;;;;;;;;;4.00;4.00;;;;;;;;5067510;28;13560;-77
2023/04/05 14:27:59;;;;;;;;;3.50;3.50;;;;;;;;5067377;28;13418;-76
2023/04/05 14:30:24;;;;;;;;;6.25;6.00;;;;;;;;5067290;28;13497;-76
2023/04/05 14:32:50;;;;;;;;;6.50;5.00;;;;;;;;5066136;28;13534;-77
2023/04/05 14:35:15;;;;;;;;;4.67;4.67;;;;;;;;5067136;28;14190;-82
2023/04/05 14:37:40;;;;;;;;;4.00;3.00;;;;;;;;5066992;28;13446;-83
2023/04/05 14:40:06;;;;;;;;;4.00;4.00;;;;;;;;5067395;28;13583;-75
2023/04/05 14:42:31;;;;;;;;;6.67;6.67;;;;;;;;5067612;28;13405;-79
2023/04/05 14:44:56;;;;;;;;;8.00;4.00;;;;;;;;5065561;28;13419;-70
2023/04/05 14:47:22;;;;;;;;;6.75;5.50;;;;;;;;5066467;28;13394;-71
2023/04/05 14:49:47;;;;;;;;;9.33;4.00;;;;;;;;5067060;28;13417;-74
2023/04/05 14:52:12;;;;;;;;;6.00;6.00;;;;;;;;5064591;28;13419;-77
2023/04/05 14:54:37;;;;;;;;;6.75;4.00;;;;;;;;5066571;28;14195;-76
2023/04/05 14:57:03;;;;;;;;;6.00;6.00;;;;;;;;5047188;28;13476;-76
2023/04/05 14:59:29;;;;;;;;;12.00;6.33;;;;;;;;5046969;28;13619;-74
2023/04/05 15:01:55;;;;;;;;;6.00;6.00;;;;;;;;5060546;28;13481;-75
2023/04/05 15:04:20;;;;;;;;;6.25;4.50;;;;;;;;5082274;28;13411;-78
2023/04/05 15:06:45;;;;;;;;;6.50;5.00;;;;;;;;5066505;28;13545;-78
2023/04/05 15:09:11;;;;;;;;;8.00;6.00;;;;;;;;5066032;28;13508;-76
2023/04/05 15:11:38;;;;;;;;;6.00;6.00;;;;;;;;5055445;28;13403;-76
2023/04/05 15:14:03;;;;;;;;;6.00;6.00;;;;;;;;5064696;28;13423;-75
2023/04/05 15:16:29;;;;;;;;;3.75;3.75;;;;;;;;5065946;28;13526;-75
2023/04/05 15:18:54;;;;;;;;;6.80;6.80;;;;;;;;5066252;28;13406;-78
2023/04/05 15:21:20;;;;;;;;;8.75;7.75;;;;;;;;5064700;28;13406;-78
2023/04/05 15:23:45;;;;;;;;;9.67;8.00;;;;;;;;5066686;28;13398;-80
2023/04/05 15:26:11;;;;;;;;;7.75;6.75;;;;;;;;5066271;28;13385;-76
2023/04/05 15:28:36;;;;;;;;;7.00;4.00;;;;;;;;5066587;28;13597;-76
2023/04/05 15:31:02;;;;;;;;;8.00;6.00;;;;;;;;5066489;28;13405;-78
2023/04/05 15:33:27;;;;;;;;;6.75;6.75;;;;;;;;5065935;28;14836;-76
2023/04/05 15:35:52;;;;;;;;;6.75;6.75;;;;;;;;5066168;28;13426;-86
2023/04/05 15:38:18;;;;;;;;;8.00;5.50;;;;;;;;5065914;28;14283;-84
2023/04/05 15:40:45;;;;;;;;;7.00;6.00;;;;;;;;5066199;28;13557;-81
2023/04/05 15:43:10;;;;;;;;;6.60;4.00;;;;;;;;5080850;22;13439;-75
2023/04/05 15:45:36;;;;;;;;;6.00;6.00;;;;;;;;5047380;28;13308;-74
2023/04/05 15:48:01;;;;;;;;;6.00;6.00;;;;;;;;5047543;28;13319;-72
2023/04/05 15:50:26;;;;;;;;;8.00;6.67;;;;;;;;5047709;28;13283;-73
2023/04/05 15:52:52;;;;;;;;;6.50;6.50;;;;;;;;5047692;28;13415;-72
2023/04/05 15:55:17;;;;;;;;;6.00;6.00;;;;;;;;5047178;28;13278;-73
2023/04/05 15:57:42;;;;;;;;;6.00;6.00;;;;;;;;5047082;28;13295;-72
2023/04/05 16:00:08;;;;;;;;;7.00;7.00;;;;;;;;5047444;28;13291;-71
2023/04/05 16:02:35;;;;;;;;;6.25;4.00;;;;;;;;5047548;28;13343;-72
2023/04/05 16:05:00;;;;;;;;;6.00;6.00;;;;;;;;5047386;28;13401;-75
2023/04/05 16:07:25;;;;;;;;;4.00;4.00;;;;;;;;5029479;28;13511;-70
2023/04/05 16:09:51;;;;;;;;;6.00;6.00;;;;;;;;5047451;28;13309;-73
2023/04/05 16:12:16;;;;;;;;;8.00;6.25;;;;;;;;5047412;28;13323;-77
2023/04/05 16:14:41;;;;;;;;;9.00;9.00;;;;;;;;5046848;28;14104;-74
2023/04/05 16:17:07;;;;;;;;;6.25;6.25;;;;;;;;5029326;28;13315;-75
2023/04/05 16:19:32;;;;;;;;;5.50;5.50;;;;;;;;5047442;28;13405;-76
2023/04/05 16:21:58;;;;;;;;;4.00;4.00;;;;;;;;5047201;28;13346;-76
2023/04/05 16:24:25;;;;;;;;;4.50;4.50;;;;;;;;5047539;28;13279;-73
2023/04/05 16:26:51;;;;;;;;;4.00;4.00;;;;;;;;5047161;28;13410;-74
2023/04/05 16:29:16;;;;;;;;;6.80;6.00;;;;;;;;5047430;28;13322;-74
2023/04/05 16:31:45;;;;;;;;;5.50;5.50;;;;;;;;5047079;28;13348;-75
2023/04/05 16:34:11;;;;;;;;;7.80;6.00;;;;;;;;5046690;28;13324;-74
2023/04/05 16:36:36;;;;;;;;;4.50;3.25;;;;;;;;5047211;28;13319;-74
2023/04/05 16:39:01;;;;;;;;;6.00;6.00;;;;;;;;5028922;28;14025;-72
2023/04/05 16:41:26;;;;;;;;;3.00;3.00;;;;;;;;5046737;28;13303;-71
2023/04/05 16:43:52;;;;;;;;;3.75;3.75;;;;;;;;5047236;28;13982;-73
2023/04/05 16:46:17;;;;;;;;;7.00;4.00;;;;;;;;5047066;28;14462;-72
2023/04/05 16:48:42;;;;;;;;;4.00;4.00;;;;;;;;5046959;28;14077;-72
2023/04/05 16:51:08;;;;;;;;;8.25;7.00;;;;;;;;5046571;28;14196;-73
2023/04/05 16:53:33;;;;;;;;;7.50;6.00;;;;;;;;5046428;28;13500;-71
2023/04/05 16:55:58;;;;;;;;;8.00;7.00;;;;;;;;5046567;28;13327;-72
2023/04/05 16:58:24;;;;;;;;;4.50;4.50;;;;;;;;5046489;28;13318;-71
2023/04/05 17:00:54;;;;;;;;;9.00;7.50;;;;;;;;5050852;28;13329;-72
2023/04/05 17:03:20;;;;;;;;;5.00;4.00;;;;;;;;5050984;28;13242;-73
2023/04/05 17:05:45;;;;;;;;;6.00;6.00;;;;;;;;5048471;28;13316;-75
2023/04/05 17:08:11;;;;;;;;;7.25;5.00;;;;;;;;5032721;28;13341;-72
2023/04/05 17:10:36;;;;;;;;;6.25;4.50;;;;;;;;5050404;28;14063;-72
2023/04/05 17:13:01;;;;;;;;;4.00;4.00;;;;;;;;5047202;28;13467;-73
2023/04/05 17:15:27;;;;;;;;;6.00;6.00;;;;;;;;5048030;28;13377;-73
2023/04/05 17:17:52;;;;;;;;;9.00;6.00;;;;;;;;5050501;28;13346;-75
2023/04/05 17:20:17;;;;;;;;;5.33;4.00;;;;;;;;5050381;28;14266;-69
2023/04/05 17:22:42;;;;;;;;;7.00;6.00;;;;;;;;5050478;28;13304;-77
2023/04/05 17:25:08;;;;;;;;;7.25;7.25;;;;;;;;5048208;28;13216;-75
2023/04/05 17:27:33;;;;;;;;;7.00;4.67;;;;;;;;5045760;28;13468;-71
2023/04/05 17:29:59;;;;;;;;;6.00;4.00;;;;;;;;5050630;28;13312;-74
2023/04/05 17:32:27;;;;;;;;;9.00;8.25;;;;;;;;5032136;28;13447;-82
2023/04/05 17:34:52;;;;;;;;;5.60;4.00;;;;;;;;5049513;28;13300;-82
2023/04/05 17:37:17;;;;;;;;;6.00;6.00;;;;;;;;5048067;28;13316;-72
2023/04/05 17:39:42;;;;;;;;;6.00;6.00;;;;;;;;5047957;28;13301;-76
2023/04/05 17:42:08;;;;;;;;;3.00;3.00;;;;;;;;5049536;28;14080;-74
2023/04/05 17:44:33;;;;;;;;;4.67;4.67;;;;;;;;5050539;28;13306;-73
2023/04/05 17:46:58;;;;;;;;;5.50;5.50;;;;;;;;5049887;28;14154;-76
2023/04/05 17:49:24;;;;;;;;;3.75;3.75;;;;;;;;5048731;28;13545;-78
2023/04/05 17:51:49;;;;;;;;;6.00;4.00;;;;;;;;5048682;28;13295;-77
2023/04/05 17:54:15;;;;;;;;;7.00;7.00;;;;;;;;5049845;28;13361;-71
2023/04/05 17:56:40;;;;;;;;;4.80;4.80;;;;;;;;5049312;28;13899;-77
2023/04/05 17:59:05;;;;;;;;;8.00;6.25;;;;;;;;5049089;28;13312;-76
2023/04/05 18:01:31;;;;;;;;;7.00;5.00;;;;;;;;5049556;28;13484;-76
2023/04/05 18:03:57;;;;;;;;;6.50;5.75;;;;;;;;5049607;28;14284;-78
2023/04/05 18:06:23;;;;;;;;;6.00;6.00;;;;;;;;5049712;28;13424;-77
2023/04/05 18:08:48;;;;;;;;;5.00;5.00;;;;;;;;5049516;28;13453;-73
2023/04/05 18:11:13;;;;;;;;;6.67;6.00;;;;;;;;5044486;28;13315;-74
2023/04/05 18:13:39;;;;;;;;;6.33;6.00;;;;;;;;5049349;28;14115;-77
2023/04/05 18:16:04;;;;;;;;;6.50;6.50;;;;;;;;5049375;28;13319;-75
2023/04/05 18:18:30;;;;;;;;;7.50;7.50;;;;;;;;5031502;28;13311;-76
2023/04/05 18:20:58;;;;;;;;;11.00;6.00;;;;;;;;5047257;28;13289;-73
2023/04/05 18:23:26;;;;;;;;;6.40;6.40;;;;;;;;5049265;28;14939;-75
2023/04/05 18:25:51;;;;;;;;;7.40;7.40;;;;;;;;5048558;28;13504;-76
2023/04/05 18:28:17;;;;;;;;;9.60;8.00;;;;;;;;5047698;28;13292;-76
2023/04/05 18:30:42;;;;;;;;;7.20;6.60;;;;;;;;5029603;28;13327;-73
2023/04/05 18:33:08;;;;;;;;;12.00;7.00;;;;;;;;5049116;28;13298;-77
2023/04/05 18:35:33;;;;;;;;;11.00;10.00;;;;;;;;5049321;28;14095;-84
2023/04/05 18:37:59;;;;;;;;;6.00;5.00;;;;;;;;5049260;28;13323;-76
2023/04/05 18:40:25;;;;;;;;;6.33;6.33;;;;;;;;5046887;28;13320;-73
2023/04/05 18:42:50;;;;;;;;;7.00;7.00;;;;;;;;5044378;28;13301;-73
2023/04/05 18:45:16;;;;;;;;;7.67;7.67;;;;;;;;5048500;28;13328;-82
2023/04/05 18:47:41;;;;;;;;;11.00;8.00;;;;;;;;5048666;28;13319;-78
2023/04/05 18:50:08;;;;;;;;;7.75;7.00;;;;;;;;5046712;28;14122;-79
2023/04/05 18:52:36;;;;;;;;;9.60;7.00;;;;;;;;5048748;28;13286;-84
2023/04/05 18:55:02;;;;;;;;;7.60;6.80;;;;;;;;5045107;28;13413;-76
2023/04/05 18:57:27;;;;;;;;;7.00;6.00;;;;;;;;5048614;28;13423;-77
2023/04/05 18:59:52;;;;;;;;;8.00;6.00;;;;;;;;5048397;28;13274;-79
2023/04/05 19:02:18;;;;;;;;;6.75;6.75;;;;;;;;5048932;28;13267;-81
2023/04/05 19:04:43;;;;;;;;;10.50;10.00;;;;;;;;5048158;28;13254;-80
2023/04/05 19:07:08;;;;;;;;;8.00;8.00;;;;;;;;5047843;28;14024;-78
2023/04/05 19:09:34;;;;;;;;;7.00;7.00;;;;;;;;5047895;28;13311;-79
2023/04/05 19:11:59;;;;;;;;;7.00;7.00;;;;;;;;5048074;28;14040;-82
2023/04/05 19:14:24;;;;;;;;;8.00;8.00;;;;;;;;5048203;28;14025;-79
2023/04/05 19:16:50;;;;;;;;;10.00;7.00;;;;;;;;5047678;28;13274;-83
2023/04/05 19:19:17;;;;;;;;;14.75;11.00;;;;;;;;5048135;28;13284;-75
2023/04/05 19:21:43;;;;;;;;;12.20;9.20;;;;;;;;5046650;28;13383;-73
2023/04/05 19:24:08;;;;;;;;;8.00;8.00;;;;;;;;5047552;28;13301;-72
2023/04/05 19:26:34;;;;;;;;;10.20;8.40;;;;;;;;5047578;28;13259;-72
2023/04/05 19:28:59;;;;;;;;;10.00;10.00;;;;;;;;5029868;28;13345;-73
2023/04/05 19:31:25;;;;;;;;;8.00;8.00;;;;;;;;5047551;28;14164;-76
2023/04/05 19:33:50;;;;;;;;;10.00;10.00;;;;;;;;5047834;28;13283;-74
2023/04/05 19:36:15;;;;;;;;;12.00;10.00;;;;;;;;5047350;28;14486;-72
2023/04/05 19:38:41;;;;;;;;;11.00;8.00;;;;;;;;5046919;28;13447;-75
2023/04/05 19:41:06;;;;;;;;;10.00;10.00;;;;;;;;5046990;28;13891;-73
2023/04/05 19:43:35;;;;;;;;;10.75;9.50;;;;;;;;5047034;28;13295;-73
2023/04/05 19:46:00;;;;;;;;;11.00;8.00;;;;;;;;5047270;28;13437;-75
2023/04/05 19:48:37;;;;;;;;;9.50;9.50;;;;;;;;5047171;28;13374;-77
2023/04/05 19:51:05;;;;;;;;;11.40;9.60;;;;;;;;5046588;28;13352;-75
2023/04/05 19:53:30;;;;;;;;;10.40;10.40;;;;;;;;5046121;28;13438;-80
2023/04/05 19:55:58;;;;;;;;;11.00;11.00;;;;;;;;5047227;28;13463;-78
2023/04/05 19:58:27;;;;;;;;;16.00;11.00;;;;;;;;5047613;28;13398;-79
2023/04/05 20:00:54;;;;;;;;;14.25;10.25;;;;;;;;5044653;28;13337;-70
2023/04/05 20:03:22;;;;;;;;;10.00;10.00;;;;;;;;5044048;28;13416;-75
2023/04/05 20:05:47;;;;;;;;;11.00;10.50;;;;;;;;5036979;28;14262;-80
2023/04/05 20:08:13;;;;;;;;;11.00;10.00;;;;;;;;5028421;28;13564;-72
2023/04/05 20:10:46;;;;;;;;;12.20;11.00;;;;;;;;5046355;28;13389;-72
2023/04/05 20:13:13;;;;;;;;;11.00;10.50;;;;;;;;5046991;28;13455;-73
2023/04/05 20:15:39;;;;;;;;;10.80;10.00;;;;;;;;5045868;28;13451;-76
2023/04/05 20:18:05;;;;;;;;;11.00;10.00;;;;;;;;5028973;28;13448;-74
2023/04/05 20:20:30;;;;;;;;;13.75;12.25;;;;;;;;5042555;28;14162;-70
2023/04/05 20:22:56;;;;;;;;;15.00;10.50;;;;;;;;5046817;28;13375;-71
2023/04/05 20:25:51;;;;;;;;;12.50;11.00;;;;;;;;5046667;28;13362;-72
2023/04/05 20:28:31;;;;;;;;;15.00;11.20;;;;;;;;5004412;28;13384;-73
2023/04/05 20:30:56;;;;;;;;;12.00;11.00;;;;;;;;5004718;28;13401;-73
2023/04/05 20:33:43;;;;;;;;;12.25;11.50;;;;;;;;5004567;28;14309;-72
2023/04/05 20:36:10;;;;;;;;;10.00;8.00;;;;;;;;5004182;28;13342;-71
2023/04/05 20:38:45;;;;;;;;;13.00;13.00;;;;;;;;5004566;28;13441;-70
2023/04/05 20:41:11;;;;;;;;;15.00;14.00;;;;;;;;5004638;28;13370;-72
2023/04/05 20:43:36;;;;;;;;;12.00;11.25;;;;;;;;5004308;28;13453;-71
2023/04/05 20:46:02;;;;;;;;;13.75;12.50;;;;;;;;5004337;28;14090;-70
2023/04/05 20:48:31;;;;;;;;;18.50;12.00;;;;;;;;4988032;28;13383;-71
2023/04/05 20:50:57;;;;;;;;;17.00;12.40;;;;;;;;5004257;28;14254;-71
2023/04/05 20:53:23;;;;;;;;;11.75;11.75;;;;;;;;5004006;28;13413;-71
2023/04/05 20:55:48;;;;;;;;;15.00;12.00;;;;;;;;5004327;28;13355;-72
2023/04/05 20:58:14;;;;;;;;;10.25;10.25;;;;;;;;5004366;28;13727;-71
2023/04/05 21:00:40;;;;;;;;;8.00;8.00;;;;;;;;5004603;28;13329;-75
2023/04/05 21:03:06;;;;;;;;;10.25;9.50;;;;;;;;5004581;28;14107;-70
2023/04/05 21:05:31;;;;;;;;;13.50;13.50;;;;;;;;5039739;28;13369;-75
2023/04/05 21:07:57;;;;;;;;;12.00;10.25;;;;;;;;5046105;28;14268;-75
2023/04/05 21:10:22;;;;;;;;;11.67;11.67;;;;;;;;5045730;28;13561;-75
2023/04/05 21:12:47;;;;;;;;;12.33;12.33;;;;;;;;5045937;28;13461;-74
2023/04/05 21:15:12;;;;;;;;;11.00;10.67;;;;;;;;5044874;28;13626;-75
2023/04/05 21:17:38;;;;;;;;;11.25;11.00;;;;;;;;5031264;28;13445;-75
2023/04/05 21:20:03;;;;;;;;;13.25;13.25;;;;;;;;5028027;28;13323;-74
2023/04/05 21:22:29;;;;;;;;;14.50;10.00;;;;;;;;5046248;28;13331;-75
2023/04/05 21:24:54;;;;;;;;;14.25;11.00;;;;;;;;5051574;28;13479;-75
2023/04/05 21:27:19;;;;;;;;;10.00;7.00;;;;;;;;5048372;28;13335;-75
2023/04/05 21:29:44;;;;;;;;;10.33;9.00;;;;;;;;5052055;28;13336;-74
2023/04/05 21:32:10;;;;;;;;;9.33;9.33;;;;;;;;5053599;28;13519;-75
2023/04/05 21:34:35;;;;;;;;;16.00;15.25;;;;;;;;5046119;28;13408;-72
2023/04/05 21:37:00;;;;;;;;;11.67;11.67;;;;;;;;5046088;28;13358;-76
2023/04/05 21:39:26;;;;;;;;;11.00;11.00;;;;;;;;5045871;28;13387;-76
2023/04/05 21:41:51;;;;;;;;;10.00;10.00;;;;;;;;5045725;28;13411;-75
2023/04/05 21:44:16;;;;;;;;;10.67;10.67;;;;;;;;5045838;28;13373;-77
2023/04/05 21:46:41;;;;;;;;;15.00;12.50;;;;;;;;5049715;28;14117;-77
2023/04/05 21:49:07;;;;;;;;;11.00;11.00;;;;;;;;5049726;28;13801;-77
2023/04/05 21:51:33;;;;;;;;;15.00;11.00;;;;;;;;5049601;28;13349;-77
2023/04/05 21:53:58;;;;;;;;;11.75;11.00;;;;;;;;5049561;28;13342;-75
2023/04/05 21:56:24;;;;;;;;;14.75;10.50;;;;;;;;5049205;28;13387;-75
2023/04/05 21:58:49;;;;;;;;;11.75;9.25;;;;;;;;5049333;28;13502;-75
2023/04/05 22:01:14;;;;;;;;;12.00;10.75;;;;;;;;5049304;28;14154;-74
2023/04/05 22:03:40;;;;;;;;;11.50;10.50;;;;;;;;5031101;28;14418;-75
2023/04/05 22:06:05;;;;;;;;;12.00;10.00;;;;;;;;5049365;28;13311;-75
2023/04/05 22:08:32;;;;;;;;;10.25;9.25;;;;;;;;5049437;28;13304;-75
2023/04/05 22:10:58;;;;;;;;;11.80;11.00;;;;;;;;5049318;28;13477;-74
2023/04/05 22:13:23;;;;;;;;;14.50;12.00;;;;;;;;5049353;28;13422;-75
2023/04/05 22:15:49;;;;;;;;;12.50;10.75;;;;;;;;5049370;28;13351;-76
2023/04/05 22:18:14;;;;;;;;;10.33;9.00;;;;;;;;5049137;28;14186;-75
2023/04/05 22:20:39;;;;;;;;;15.25;10.00;;;;;;;;5049033;28;13296;-75
2023/04/05 22:23:05;;;;;;;;;10.75;10.00;;;;;;;;5048832;28;13337;-74
2023/04/05 22:25:30;;;;;;;;;10.00;10.00;;;;;;;;5030715;28;13338;-75
2023/04/05 22:27:58;;;;;;;;;9.67;9.67;;;;;;;;5049160;28;13414;-75
2023/04/05 22:30:24;;;;;;;;;12.00;10.00;;;;;;;;5049024;28;13300;-74
2023/04/05 22:32:50;;;;;;;;;14.50;12.00;;;;;;;;5049010;28;13330;-73
2023/04/05 22:35:16;;;;;;;;;9.00;9.00;;;;;;;;5048925;28;13541;-75
2023/04/05 22:37:41;;;;;;;;;10.75;9.25;;;;;;;;5030977;28;13498;-75
2023/04/05 22:40:06;;;;;;;;;12.50;10.75;;;;;;;;5048509;28;13255;-76
2023/04/05 22:42:32;;;;;;;;;16.00;11.00;;;;;;;;5049045;28;13349;-76
2023/04/05 22:44:57;;;;;;;;;15.33;14.00;;;;;;;;5048598;28;13353;-76
2023/04/05 22:47:23;;;;;;;;;11.75;11.75;;;;;;;;5030821;28;13261;-76
2023/04/05 22:49:48;;;;;;;;;10.25;10.25;;;;;;;;5049059;28;14272;-75
2023/04/05 22:52:14;;;;;;;;;10.40;10.00;;;;;;;;5048783;28;13492;-76
2023/04/05 22:54:39;;;;;;;;;11.00;11.00;;;;;;;;5048633;28;13310;-76
2023/04/05 22:57:05;;;;;;;;;8.50;8.50;;;;;;;;5047979;28;13361;-75
2023/04/05 22:59:30;;;;;;;;;12.25;10.75;;;;;;;;5048526;28;13279;-75
2023/04/05 23:01:55;;;;;;;;;10.33;10.33;;;;;;;;5030860;28;13409;-75
2023/04/05 23:04:21;;;;;;;;;12.00;9.75;;;;;;;;5048390;28;13355;-74
2023/04/05 23:06:46;;;;;;;;;11.00;9.25;;;;;;;;5048276;28;13292;-75
2023/04/05 23:09:11;;;;;;;;;9.33;9.33;;;;;;;;5048183;28;13351;-76
2023/04/05 23:11:36;;;;;;;;;9.25;9.25;;;;;;;;5048167;28;13372;-76